Time;durP1;ratioP1;P1;durP2;ratioP2;P2;SDS_P1;SDS_P2;PMS_P1;PMS_P2;Temp;Humidity;BMP_temperature;BMP_pressure;BME280_temperature;BME280_humidity;BME280_pressure;Samples;Min_cycle;Max_cycle;Signal;HPM_P1;HPM_P2
2021/09/18 00:02:06;;;;;;;3.80;2.15;;;20.20;82.70;;;;;;4992210;28;20244;-79
2021/09/18 00:04:32;;;;;;;2.63;1.63;;;20.20;82.70;;;;;;5001670;28;20182;-80
2021/09/18 00:06:58;;;;;;;4.38;1.85;;;20.20;82.90;;;;;;4998220;28;20192;-79
2021/09/18 00:09:23;;;;;;;4.70;1.85;;;20.20;82.60;;;;;;4995601;28;20199;-79
2021/09/18 00:11:49;;;;;;;4.00;1.95;;;20.30;82.60;;;;;;4992719;28;20300;-79
2021/09/18 00:14:17;;;;;;;4.53;1.92;;;20.30;82.40;;;;;;4993903;28;20196;-79
2021/09/18 00:16:43;;;;;;;2.42;1.67;;;20.20;82.20;;;;;;4993737;28;20174;-79
2021/09/18 00:19:09;;;;;;;6.32;1.85;;;20.20;82.30;;;;;;5000513;28;20182;-79
2021/09/18 00:21:35;;;;;;;1.55;1.50;;;20.20;82.10;;;;;;4994714;28;20221;-79
2021/09/18 00:24:01;;;;;;;3.45;1.65;;;20.20;82.10;;;;;;5022932;28;20186;-79
2021/09/18 00:26:26;;;;;;;2.83;1.88;;;20.30;82.10;;;;;;4998029;28;20654;-80
2021/09/18 00:28:52;;;;;;;2.17;2.03;;;20.30;82.10;;;;;;4992164;28;20190;-79
2021/09/18 00:31:18;;;;;;;4.47;1.60;;;20.30;82.00;;;;;;5031456;28;20239;-80
2021/09/18 00:33:43;;;;;;;4.18;1.50;;;20.30;82.00;;;;;;4997428;28;20189;-79
2021/09/18 00:36:10;;;;;;;2.35;1.67;;;20.30;81.90;;;;;;4994944;28;20189;-79
2021/09/18 00:38:35;;;;;;;2.65;2.03;;;20.30;81.80;;;;;;4994976;28;20728;-79
2021/09/18 00:41:01;;;;;;;3.80;1.63;;;20.30;81.80;;;;;;4996714;28;20181;-79
2021/09/18 00:43:27;;;;;;;5.65;1.90;;;20.40;81.90;;;;;;4993395;28;20178;-79
2021/09/18 00:45:52;;;;;;;1.77;1.70;;;20.40;82.20;;;;;;4990519;28;20186;-80
2021/09/18 00:48:18;;;;;;;3.83;1.42;;;20.40;82.80;;;;;;4988972;28;20193;-80
2021/09/18 00:50:43;;;;;;;4.50;2.30;;;20.40;82.80;;;;;;4997111;28;20205;-80
2021/09/18 00:53:09;;;;;;;8.13;2.47;;;20.40;83.30;;;;;;4995027;28;20177;-79
2021/09/18 00:55:35;;;;;;;6.38;2.28;;;20.40;83.00;;;;;;4995412;28;20184;-80
2021/09/18 00:58:01;;;;;;;9.43;2.25;;;20.40;83.00;;;;;;4998664;28;20252;-79
2021/09/18 01:00:27;;;;;;;3.42;1.98;;;20.30;84.20;;;;;;4991833;28;20181;-79
2021/09/18 01:02:53;;;;;;;2.13;2.03;;;20.30;83.40;;;;;;4997678;28;20191;-79
2021/09/18 01:05:19;;;;;;;11.80;2.72;;;20.20;85.00;;;;;;4992968;28;20191;-79
2021/09/18 01:07:45;;;;;;;3.95;1.83;;;20.00;85.90;;;;;;4995676;28;20208;-78
2021/09/18 01:10:11;;;;;;;1.85;1.60;;;19.80;86.80;;;;;;4991289;28;20698;-78
2021/09/18 01:13:08;;;;;;;5.78;1.98;;;19.50;87.30;;;;;;4996776;28;20272;-78
2021/09/18 01:15:36;;;;;;;4.03;1.92;;;19.30;89.50;;;;;;4976232;28;20194;-77
2021/09/18 01:18:03;;;;;;;4.18;1.50;;;19.20;90.50;;;;;;4972333;28;20690;-77
2021/09/18 01:20:30;;;;;;;2.08;1.25;;;19.10;90.20;;;;;;4979372;28;20200;-78
2021/09/18 01:22:57;;;;;;;2.38;1.55;;;19.00;90.60;;;;;;4977798;28;20198;-79
2021/09/18 01:25:29;;;;;;;4.25;1.35;;;19.00;91.50;;;;;;4972265;28;20390;-79
2021/09/18 01:27:55;;;;;;;6.07;2.15;;;18.90;91.70;;;;;;4974378;28;20198;-79
2021/09/18 01:30:25;;;;;;;8.07;1.60;;;18.90;91.90;;;;;;4977860;28;20580;-79
2021/09/18 01:32:52;;;;;;;7.72;1.98;;;18.90;92.50;;;;;;4974988;28;20225;-80
2021/09/18 01:35:18;;;;;;;5.15;1.35;;;18.80;92.50;;;;;;4977415;28;20260;-79
2021/09/18 01:37:47;;;;;;;3.33;1.45;;;18.80;92.80;;;;;;4979151;28;20225;-79
2021/09/18 01:40:14;;;;;;;1.50;1.15;;;18.80;92.20;;;;;;4978268;28;20201;-79
2021/09/18 01:42:44;;;;;;;1.88;1.65;;;18.80;92.80;;;;;;4981698;28;20639;-79
2021/09/18 01:45:11;;;;;;;2.35;1.55;;;18.80;92.50;;;;;;4976519;28;20201;-79
2021/09/18 01:47:47;;;;;;;3.30;1.45;;;18.80;93.10;;;;;;4975936;28;20190;-79
2021/09/18 01:50:25;;;;;;;2.72;1.85;;;18.80;92.60;;;;;;4976196;28;20215;-80
2021/09/18 01:52:57;;;;;;;2.65;1.52;;;18.80;93.30;;;;;;4993157;28;20197;-79
2021/09/18 01:55:23;;;;;;;3.08;1.75;;;18.80;93.50;;;;;;4993128;28;20667;-80
2021/09/18 01:57:51;;;;;;;2.28;1.55;;;18.80;93.80;;;;;;4994092;28;20287;-79
2021/09/18 02:00:17;;;;;;;5.75;1.40;;;18.80;93.50;;;;;;4997240;28;20188;-79
2021/09/18 02:02:44;;;;;;;4.28;1.67;;;18.80;93.60;;;;;;4994960;28;20182;-79
2021/09/18 02:05:11;;;;;;;5.63;1.80;;;18.80;93.90;;;;;;4992637;28;20241;-80
2021/09/18 02:07:36;;;;;;;4.20;2.00;;;18.80;93.90;;;;;;4989624;28;20188;-79
2021/09/18 02:10:05;;;;;;;3.60;1.85;;;18.80;94.80;;;;;;4995159;28;20188;-80
2021/09/18 02:12:31;;;;;;;7.28;1.60;;;18.70;95.80;;;;;;4997825;28;20181;-80
2021/09/18 02:14:57;;;;;;;4.32;1.55;;;18.60;95.40;;;;;;4989049;28;20231;-79
2021/09/18 02:17:22;;;;;;;1.88;1.13;;;18.60;95.10;;;;;;4987916;28;20237;-79
2021/09/18 02:19:48;;;;;;;2.83;1.73;;;18.60;95.60;;;;;;4998558;28;20189;-79
2021/09/18 02:22:14;;;;;;;1.20;1.08;;;18.60;95.10;;;;;;4996973;28;20184;-79
2021/09/18 02:24:40;;;;;;;5.10;1.83;;;18.50;95.30;;;;;;4989596;28;20687;-79
2021/09/18 02:27:05;;;;;;;1.48;1.25;;;18.60;95.20;;;;;;4997479;28;20190;-79
2021/09/18 02:29:31;;;;;;;5.32;1.58;;;18.60;95.30;;;;;;4991265;28;20238;-79
2021/09/18 02:31:56;;;;;;;5.93;1.73;;;18.60;95.30;;;;;;4997095;28;20185;-79
2021/09/18 02:34:22;;;;;;;4.82;1.67;;;18.60;95.90;;;;;;4997988;28;20177;-79
2021/09/18 02:36:48;;;;;;;14.30;1.52;;;18.70;95.60;;;;;;4990641;28;20209;-79
2021/09/18 02:39:13;;;;;;;11.57;2.25;;;18.70;95.70;;;;;;4985976;28;20190;-79
2021/09/18 02:41:39;;;;;;;4.38;1.90;;;18.70;96.10;;;;;;4991404;28;20185;-80
2021/09/18 02:44:05;;;;;;;2.25;1.52;;;18.70;95.50;;;;;;4989306;28;20196;-79
2021/09/18 02:46:30;;;;;;;8.32;1.60;;;18.60;95.60;;;;;;4986591;28;20181;-79
2021/09/18 02:48:56;;;;;;;4.65;1.73;;;18.60;95.70;;;;;;4992481;28;20905;-79
2021/09/18 02:51:22;;;;;;;4.60;1.90;;;18.60;95.90;;;;;;4999081;28;20635;-80
2021/09/18 02:53:47;;;;;;;3.22;2.05;;;18.70;95.70;;;;;;4991581;28;20693;-80
2021/09/18 02:56:13;;;;;;;4.70;1.90;;;18.60;95.60;;;;;;4988194;28;20271;-80
2021/09/18 02:58:39;;;;;;;6.10;2.22;;;18.60;95.70;;;;;;4990725;28;20214;-79
2021/09/18 03:01:04;;;;;;;7.00;2.05;;;18.60;96.00;;;;;;4990892;28;20272;-79
2021/09/18 03:03:30;;;;;;;4.93;2.15;;;18.60;95.80;;;;;;4993398;28;20278;-79
2021/09/18 03:05:56;;;;;;;7.50;1.88;;;18.60;96.00;;;;;;4991664;28;20185;-79
2021/09/18 03:08:22;;;;;;;6.20;2.42;;;18.60;95.90;;;;;;4984969;28;20731;-79
2021/09/18 03:10:48;;;;;;;4.95;2.33;;;18.60;95.80;;;;;;4992661;28;20275;-79
2021/09/18 03:13:13;;;;;;;8.38;2.17;;;18.60;95.70;;;;;;4987743;28;20269;-79
2021/09/18 03:15:39;;;;;;;3.20;2.15;;;18.50;95.70;;;;;;4993887;28;20562;-79
2021/09/18 03:18:05;;;;;;;4.03;2.00;;;18.50;95.60;;;;;;4989345;28;20210;-80
2021/09/18 03:20:30;;;;;;;4.53;2.55;;;18.40;95.50;;;;;;4992682;28;20280;-79
2021/09/18 03:22:56;;;;;;;5.03;2.35;;;18.40;95.90;;;;;;4990332;28;20197;-79
2021/09/18 03:25:22;;;;;;;4.15;2.17;;;18.30;96.00;;;;;;4995414;28;20745;-80
2021/09/18 03:27:47;;;;;;;5.93;2.60;;;18.30;95.90;;;;;;4990048;28;20178;-80
2021/09/18 03:30:13;;;;;;;2.78;2.35;;;18.30;95.90;;;;;;4993165;28;20198;-79
2021/09/18 03:32:39;;;;;;;6.03;3.05;;;18.30;96.10;;;;;;4987201;28;20655;-79
2021/09/18 03:35:05;;;;;;;10.18;2.33;;;18.30;96.30;;;;;;5004933;28;20180;-79
2021/09/18 03:37:34;;;;;;;5.93;2.45;;;18.20;97.10;;;;;;4994702;28;20698;-79
2021/09/18 03:40:01;;;;;;;6.68;3.20;;;18.20;97.20;;;;;;5023796;28;20239;-79
2021/09/18 03:42:27;;;;;;;2.38;2.05;;;18.10;96.90;;;;;;5002129;28;20188;-79
2021/09/18 03:44:52;;;;;;;5.85;2.40;;;18.10;97.00;;;;;;4987154;28;20269;-79
2021/09/18 03:47:18;;;;;;;4.43;2.47;;;18.10;97.20;;;;;;4989250;28;20190;-79
2021/09/18 03:49:44;;;;;;;6.32;2.28;;;18.10;97.20;;;;;;4991165;28;20182;-79
2021/09/18 03:52:09;;;;;;;4.70;2.90;;;18.10;97.20;;;;;;4998565;28;21700;-79
2021/09/18 03:54:35;;;;;;;4.35;1.98;;;18.10;97.30;;;;;;4995481;28;20309;-79
2021/09/18 03:57:01;;;;;;;4.53;1.98;;;18.10;97.30;;;;;;4997750;28;20216;-78
2021/09/18 03:59:26;;;;;;;6.07;2.13;;;18.10;97.20;;;;;;4987413;28;20247;-79
2021/09/18 04:01:52;;;;;;;2.70;2.20;;;18.10;97.40;;;;;;4989734;28;20672;-79
2021/09/18 04:04:17;;;;;;;6.82;2.40;;;18.10;97.50;;;;;;4989600;28;20702;-79
2021/09/18 04:06:43;;;;;;;3.50;2.38;;;18.10;97.60;;;;;;4987370;28;20188;-79
2021/09/18 04:09:09;;;;;;;2.50;2.00;;;18.10;97.50;;;;;;4978469;28;20213;-79
2021/09/18 04:11:35;;;;;;;2.53;2.33;;;18.10;97.60;;;;;;4986309;28;20229;-79
2021/09/18 04:14:00;;;;;;;2.00;1.85;;;18.10;97.60;;;;;;4993372;28;20208;-78
2021/09/18 04:16:26;;;;;;;3.78;1.95;;;18.10;98.00;;;;;;4986872;28;20225;-80
2021/09/18 04:18:52;;;;;;;5.53;2.38;;;18.10;98.00;;;;;;4987373;28;20287;-80
2021/09/18 04:21:18;;;;;;;2.05;1.90;;;18.10;97.50;;;;;;4989415;28;20236;-80
2021/09/18 04:23:45;;;;;;;3.22;2.17;;;18.20;97.40;;;;;;4993498;28;20928;-80
2021/09/18 04:26:11;;;;;;;11.93;2.55;;;18.20;97.30;;;;;;4991533;28;20181;-79
2021/09/18 04:28:37;;;;;;;6.32;2.42;;;18.20;97.40;;;;;;4993610;28;20201;-79
2021/09/18 04:31:03;;;;;;;2.90;1.95;;;18.20;97.40;;;;;;4997515;28;20181;-79
2021/09/18 04:33:28;;;;;;;4.03;1.95;;;18.20;97.50;;;;;;4992396;28;20209;-79
2021/09/18 04:35:54;;;;;;;2.92;2.35;;;18.20;97.60;;;;;;4994341;28;20754;-79
2021/09/18 04:38:20;;;;;;;2.30;2.10;;;18.30;97.60;;;;;;4992901;28;20220;-77
2021/09/18 04:40:45;;;;;;;9.90;2.80;;;18.40;97.80;;;;;;4994571;28;20924;-78
2021/09/18 04:43:11;;;;;;;9.50;3.08;;;18.40;98.30;;;;;;4993648;28;20305;-78
2021/09/18 04:45:37;;;;;;;12.23;2.00;;;18.30;98.40;;;;;;4994411;28;20193;-76
2021/09/18 04:48:03;;;;;;;4.45;2.47;;;18.20;98.50;;;;;;4994287;28;20190;-75
2021/09/18 04:50:29;;;;;;;3.25;1.85;;;18.20;98.50;;;;;;4995911;28;20623;-77
2021/09/18 04:52:54;;;;;;;8.68;2.38;;;18.20;98.50;;;;;;4995215;28;20273;-75
2021/09/18 04:55:20;;;;;;;6.75;2.45;;;18.10;98.50;;;;;;4996183;28;20189;-76
2021/09/18 04:57:46;;;;;;;3.78;2.22;;;18.10;98.30;;;;;;4998126;28;20233;-76
2021/09/18 05:00:12;;;;;;;5.10;1.98;;;17.90;98.50;;;;;;5008632;28;20828;-77
2021/09/18 05:02:37;;;;;;;3.95;2.00;;;17.90;98.50;;;;;;5010839;28;20217;-78
2021/09/18 05:05:04;;;;;;;5.63;2.20;;;17.80;98.50;;;;;;5007660;28;20198;-76
2021/09/18 05:07:29;;;;;;;3.10;1.75;;;17.80;98.50;;;;;;5000357;28;20189;-76
2021/09/18 05:09:57;;;;;;;2.15;1.95;;;17.70;98.50;;;;;;4990696;28;20203;-80
2021/09/18 05:12:23;;;;;;;6.70;2.53;;;17.70;98.50;;;;;;4998618;28;20586;-77
2021/09/18 05:14:48;;;;;;;2.28;2.08;;;17.70;98.50;;;;;;4993026;28;21884;-76
2021/09/18 05:17:14;;;;;;;8.13;2.00;;;17.70;98.50;;;;;;4994988;28;20244;-75
2021/09/18 05:19:40;;;;;;;2.80;2.20;;;17.70;98.50;;;;;;4992671;28;20213;-77
2021/09/18 05:22:06;;;;;;;7.30;3.03;;;17.60;98.50;;;;;;4992561;28;20226;-77
2021/09/18 05:24:32;;;;;;;5.07;1.80;;;17.60;98.50;;;;;;4996825;28;20617;-78
2021/09/18 05:26:57;;;;;;;3.75;1.75;;;17.70;98.50;;;;;;4986655;28;20182;-79
2021/09/18 05:29:23;;;;;;;3.63;2.38;;;17.70;98.50;;;;;;4991424;28;20176;-78
2021/09/18 05:31:49;;;;;;;4.45;2.45;;;17.80;98.50;;;;;;4992625;28;20208;-77
2021/09/18 05:34:15;;;;;;;3.53;2.00;;;17.90;98.50;;;;;;4992109;28;20323;-77
2021/09/18 05:36:40;;;;;;;4.53;1.90;;;18.00;98.50;;;;;;4995756;28;20778;-77
2021/09/18 05:39:06;;;;;;;4.22;1.63;;;18.10;98.50;;;;;;5024044;28;20251;-77
2021/09/18 05:41:32;;;;;;;4.18;2.33;;;18.10;98.50;;;;;;4989991;28;20585;-76
2021/09/18 05:43:58;;;;;;;8.57;2.17;;;18.20;98.50;;;;;;4994933;28;20185;-77
2021/09/18 05:46:23;;;;;;;5.78;2.60;;;18.20;98.50;;;;;;4996088;28;20193;-77
2021/09/18 05:48:49;;;;;;;2.35;2.05;;;18.30;98.50;;;;;;4984364;28;20194;-77
2021/09/18 05:51:15;;;;;;;3.40;2.60;;;18.30;98.50;;;;;;4994194;28;20188;-77
2021/09/18 05:53:40;;;;;;;2.22;2.05;;;18.40;98.50;;;;;;4995593;28;20244;-77
2021/09/18 05:56:06;;;;;;;6.75;2.20;;;18.40;98.40;;;;;;4990766;28;20225;-76
2021/09/18 05:58:32;;;;;;;4.13;2.05;;;18.50;98.40;;;;;;4988643;28;20218;-77
2021/09/18 06:00:57;;;;;;;3.92;2.40;;;18.60;98.30;;;;;;4989746;28;20181;-76
2021/09/18 06:03:23;;;;;;;4.85;2.53;;;18.70;98.20;;;;;;4991479;28;20264;-77
2021/09/18 06:05:49;;;;;;;10.27;2.55;;;18.80;98.00;;;;;;4988026;28;20196;-77
2021/09/18 06:08:14;;;;;;;5.80;2.75;;;18.90;97.90;;;;;;4992712;28;20197;-77
2021/09/18 06:10:40;;;;;;;4.55;2.25;;;19.00;97.60;;;;;;4992656;28;20200;-77
2021/09/18 06:13:06;;;;;;;3.08;2.25;;;19.00;97.20;;;;;;4996338;28;20185;-77
2021/09/18 06:15:31;;;;;;;4.00;2.70;;;19.00;97.10;;;;;;4989366;28;20188;-77
2021/09/18 06:17:57;;;;;;;5.75;2.10;;;19.00;97.10;;;;;;4991890;28;20213;-76
2021/09/18 06:20:22;;;;;;;6.40;2.30;;;19.00;96.70;;;;;;4995026;28;20231;-81
2021/09/18 06:22:48;;;;;;;5.43;2.20;;;19.10;96.20;;;;;;4995135;28;20702;-77
2021/09/18 06:25:15;;;;;;;4.45;2.30;;;19.10;96.40;;;;;;4992186;28;20189;-77
2021/09/18 06:27:41;;;;;;;11.57;2.60;;;19.10;96.70;;;;;;4991864;28;20260;-77
2021/09/18 06:30:08;;;;;;;2.13;2.00;;;19.10;96.20;;;;;;4993079;28;20178;-77
2021/09/18 06:32:34;;;;;;;5.18;2.70;;;19.00;96.20;;;;;;4986522;28;20193;-78
2021/09/18 06:35:00;;;;;;;6.80;2.85;;;19.00;96.20;;;;;;4992325;28;21014;-80
2021/09/18 06:37:26;;;;;;;2.95;2.20;;;19.00;96.50;;;;;;4993904;28;20724;-81
2021/09/18 06:39:51;;;;;;;6.55;2.28;;;19.10;96.20;;;;;;4990632;28;20779;-78
2021/09/18 06:42:17;;;;;;;5.65;3.25;;;19.10;96.70;;;;;;4990414;28;20577;-78
2021/09/18 06:44:44;;;;;;;6.13;2.83;;;19.20;96.70;;;;;;4988517;28;20575;-77
2021/09/18 06:47:11;;;;;;;4.72;2.85;;;19.20;96.40;;;;;;4990128;28;20185;-77
2021/09/18 06:49:37;;;;;;;2.58;2.47;;;19.30;96.50;;;;;;4994287;28;20203;-78
2021/09/18 06:52:03;;;;;;;11.10;2.85;;;19.30;96.30;;;;;;4994739;28;20663;-78
2021/09/18 06:54:29;;;;;;;5.65;2.95;;;19.40;96.00;;;;;;4992687;28;20204;-76
2021/09/18 06:56:55;;;;;;;5.38;2.50;;;19.50;95.90;;;;;;4995176;28;20184;-76
2021/09/18 06:59:20;;;;;;;4.00;2.58;;;19.70;95.80;;;;;;4994117;28;20177;-76
2021/09/18 07:01:46;;;;;;;3.50;2.80;;;19.80;95.30;;;;;;4991494;28;20225;-76
2021/09/18 07:04:12;;;;;;;3.58;2.40;;;19.80;94.90;;;;;;4995903;28;20208;-76
2021/09/18 07:06:37;;;;;;;3.53;2.42;;;19.80;94.60;;;;;;4996198;28;20279;-76
2021/09/18 07:09:03;;;;;;;3.90;2.00;;;19.80;94.00;;;;;;4997489;28;20201;-76
2021/09/18 07:11:29;;;;;;;4.53;2.65;;;19.70;94.40;;;;;;4990698;28;20205;-76
2021/09/18 07:13:55;;;;;;;6.05;2.97;;;19.70;94.50;;;;;;4991367;28;20209;-76
2021/09/18 07:16:20;;;;;;;6.35;3.63;;;19.80;94.40;;;;;;4999880;28;20189;-76
2021/09/18 07:18:46;;;;;;;2.78;2.65;;;19.80;94.50;;;;;;4994940;28;20221;-76
2021/09/18 07:21:12;;;;;;;4.63;2.60;;;19.90;94.40;;;;;;4993815;28;20181;-76
2021/09/18 07:23:39;;;;;;;4.15;2.47;;;20.00;94.30;;;;;;4997691;28;20268;-79
2021/09/18 07:26:05;;;;;;;3.85;3.13;;;20.10;93.90;;;;;;4992852;28;20339;-77
2021/09/18 07:28:31;;;;;;;4.53;2.25;;;20.10;92.90;;;;;;4993781;28;20186;-76
2021/09/18 07:30:58;;;;;;;2.47;2.35;;;20.20;93.70;;;;;;4993216;28;20271;-76
2021/09/18 07:33:24;;;;;;;4.00;2.03;;;20.30;92.60;;;;;;4997990;28;20563;-76
2021/09/18 07:35:50;;;;;;;7.18;2.78;;;20.40;93.30;;;;;;4999307;28;20188;-76
2021/09/18 07:38:15;;;;;;;6.15;3.00;;;20.60;92.90;;;;;;4991254;28;20213;-75
2021/09/18 07:40:42;;;;;;;5.22;2.40;;;20.70;92.30;;;;;;4997495;28;20220;-76
2021/09/18 07:43:08;;;;;;;3.60;2.42;;;20.90;92.50;;;;;;4993048;28;20658;-74
2021/09/18 07:45:34;;;;;;;6.75;3.30;;;21.00;91.50;;;;;;4993584;28;20174;-74
2021/09/18 07:48:00;;;;;;;6.05;2.50;;;21.00;90.60;;;;;;4992134;28;20190;-77
2021/09/18 07:50:25;;;;;;;4.88;2.53;;;21.00;90.30;;;;;;4992057;28;20649;-77
2021/09/18 07:52:51;;;;;;;2.13;2.03;;;20.90;89.60;;;;;;4988432;28;20261;-74
2021/09/18 07:55:17;;;;;;;2.35;2.25;;;20.80;89.80;;;;;;4998788;28;20191;-84
2021/09/18 07:57:43;;;;;;;3.08;2.88;;;20.60;89.70;;;;;;4986420;28;20223;-76
2021/09/18 08:00:09;;;;;;;5.40;2.70;;;20.50;90.00;;;;;;4994610;28;20268;-76
2021/09/18 08:02:35;;;;;;;3.28;2.80;;;20.40;90.60;;;;;;4990492;28;20241;-75
2021/09/18 08:05:03;;;;;;;9.25;3.33;;;20.30;90.60;;;;;;4996098;28;20586;-75
2021/09/18 08:07:30;;;;;;;4.75;2.88;;;20.30;91.30;;;;;;4994035;28;20193;-75
2021/09/18 08:09:56;;;;;;;4.00;2.78;;;20.20;91.40;;;;;;4992633;28;20189;-77
2021/09/18 08:12:23;;;;;;;5.10;3.22;;;20.10;91.60;;;;;;4995699;28;20209;-77
2021/09/18 08:14:50;;;;;;;3.05;2.80;;;20.10;92.00;;;;;;4996783;28;20190;-77
2021/09/18 08:17:17;;;;;;;5.05;2.80;;;20.00;92.20;;;;;;4997760;28;20223;-76
2021/09/18 08:19:43;;;;;;;3.50;3.25;;;20.00;92.40;;;;;;4987795;28;20177;-79
2021/09/18 08:22:08;;;;;;;4.38;3.00;;;20.00;92.70;;;;;;4997119;28;20868;-79
2021/09/18 08:24:34;;;;;;;5.85;3.17;;;20.10;92.60;;;;;;4993869;28;20209;-79
2021/09/18 08:27:00;;;;;;;7.95;3.15;;;20.10;92.40;;;;;;4993137;28;20273;-77
2021/09/18 08:29:25;;;;;;;7.53;3.83;;;20.20;92.50;;;;;;4993816;28;20188;-77
2021/09/18 08:31:51;;;;;;;3.78;3.40;;;20.30;92.40;;;;;;4991005;28;20185;-78
2021/09/18 08:34:17;;;;;;;5.53;4.35;;;20.50;92.80;;;;;;4989568;28;20181;-78
2021/09/18 08:36:42;;;;;;;3.15;2.88;;;20.80;92.10;;;;;;4994160;28;20228;-78
2021/09/18 08:39:08;;;;;;;6.88;4.03;;;21.20;91.70;;;;;;4992073;28;20213;-76
2021/09/18 08:41:34;;;;;;;6.07;3.90;;;21.60;90.10;;;;;;4994765;28;20184;-77
2021/09/18 08:44:00;;;;;;;4.25;3.67;;;21.80;88.20;;;;;;4996231;28;20174;-79
2021/09/18 08:46:28;;;;;;;3.50;3.20;;;22.00;87.80;;;;;;4993453;28;20182;-78
2021/09/18 08:48:54;;;;;;;6.03;3.22;;;22.20;87.20;;;;;;4995924;28;20193;-78
2021/09/18 08:51:21;;;;;;;4.85;4.10;;;22.40;86.90;;;;;;4994305;28;20719;-78
2021/09/18 08:53:47;;;;;;;4.38;4.07;;;22.50;86.40;;;;;;4995860;28;20651;-78
2021/09/18 08:56:16;;;;;;;5.72;4.15;;;22.60;85.20;;;;;;4994462;28;20210;-79
2021/09/18 08:58:42;;;;;;;8.07;5.00;;;22.70;85.60;;;;;;4992548;28;20217;-78
2021/09/18 09:01:11;;;;;;;6.13;4.78;;;22.60;84.70;;;;;;4993672;28;20236;-79
2021/09/18 09:03:37;;;;;;;5.45;5.05;;;22.50;84.30;;;;;;4995864;28;20339;-79
2021/09/18 09:06:07;;;;;;;5.90;5.00;;;22.20;84.30;;;;;;4996695;28;20265;-76
2021/09/18 09:08:33;;;;;;;6.00;4.68;;;22.00;84.90;;;;;;4992754;28;20216;-78
2021/09/18 09:11:13;;;;;;;5.15;4.00;;;21.60;85.50;;;;;;4995407;28;20293;-78
2021/09/18 09:13:54;;;;;;;5.05;3.80;;;21.30;86.30;;;;;;4991686;28;20197;-80
2021/09/18 09:16:21;;;;;;;3.58;3.28;;;21.00;88.00;;;;;;4994403;28;20242;-80
2021/09/18 09:18:47;;;;;;;4.40;2.97;;;20.80;87.70;;;;;;4993424;28;20220;-80
2021/09/18 09:21:17;;;;;;;3.50;3.10;;;20.50;87.30;;;;;;4991602;28;20210;-79
2021/09/18 09:23:45;;;;;;;6.88;2.83;;;20.30;88.00;;;;;;4989208;28;20276;-80
2021/09/18 09:26:14;;;;;;;3.25;2.72;;;20.20;89.20;;;;;;4989864;28;20239;-80
2021/09/18 09:28:42;;;;;;;3.47;2.55;;;20.10;90.20;;;;;;4990410;28;20301;-79
2021/09/18 09:31:09;;;;;;;3.00;2.83;;;19.90;90.50;;;;;;4993062;28;20658;-80
2021/09/18 09:33:35;;;;;;;3.45;3.15;;;19.90;91.00;;;;;;4993407;28;20181;-79
2021/09/18 09:36:17;;;;;;;7.60;5.15;;;19.80;91.50;;;;;;4989175;28;20232;-79
2021/09/18 09:38:54;;;;;;;5.55;4.93;;;19.70;91.30;;;;;;4997244;28;20376;-76
2021/09/18 09:41:47;;;;;;;8.32;5.15;;;19.60;91.20;;;;;;4996767;28;20234;-77
2021/09/18 09:44:39;;;;;;;6.53;5.00;;;19.40;92.70;;;;;;4990101;28;20208;-76
2021/09/18 09:47:12;;;;;;;4.93;3.95;;;19.30;93.00;;;;;;4986121;28;20198;-75
2021/09/18 09:50:03;;;;;;;3.80;3.30;;;19.20;93.40;;;;;;4988610;28;20186;-78
2021/09/18 09:52:30;;;;;;;3.35;3.08;;;19.20;92.80;;;;;;4995332;28;20950;-78
2021/09/18 09:55:13;;;;;;;3.70;3.30;;;19.10;93.20;;;;;;4992508;28;20204;-77
2021/09/18 09:57:41;;;;;;;2.47;2.38;;;19.10;92.90;;;;;;4986874;28;20212;-76
2021/09/18 10:00:09;;;;;;;3.00;2.83;;;19.10;93.10;;;;;;5003502;28;20213;-77
2021/09/18 10:02:36;;;;;;;4.85;2.80;;;19.00;92.90;;;;;;5006741;28;20986;-76
2021/09/18 10:05:04;;;;;;;2.95;2.83;;;19.00;93.30;;;;;;5011766;28;20186;-78
2021/09/18 10:07:31;;;;;;;3.22;2.90;;;19.00;93.30;;;;;;5005706;28;20189;-78
2021/09/18 10:09:58;;;;;;;2.75;2.65;;;19.20;93.40;;;;;;5003528;28;20197;-78
2021/09/18 10:12:25;;;;;;;4.45;3.38;;;19.30;92.80;;;;;;5006333;28;20197;-77
2021/09/18 10:14:54;;;;;;;3.72;3.25;;;19.20;93.00;;;;;;4999236;28;20185;-77
2021/09/18 10:17:21;;;;;;;3.83;3.17;;;19.10;91.10;;;;;;4990579;28;20972;-74
2021/09/18 10:25:06;;;;;;;4.30;2.67;;;18.20;92.90;;;;;;4985398;28;20189;-73
2021/09/18 10:27:32;;;;;;;3.05;2.95;;;17.90;93.80;;;;;;4990603;28;20185;-73
2021/09/18 10:29:57;;;;;;;3.92;2.83;;;17.70;95.30;;;;;;4986244;28;20945;-74
2021/09/18 10:32:24;;;;;;;3.53;2.97;;;17.50;95.60;;;;;;4988463;28;20208;-75
2021/09/18 10:35:09;;;;;;;4.40;3.47;;;17.20;96.40;;;;;;4993531;28;20208;-74
2021/09/18 10:37:37;;;;;;;3.30;3.10;;;16.90;98.50;;;;;;4996147;28;20605;-73
2021/09/18 10:40:09;;;;;;;7.43;3.38;;;16.60;98.50;;;;;;4991136;28;20198;-75
2021/09/18 10:42:39;;;;;;;3.55;2.40;;;16.40;98.50;;;;;;4999140;28;20188;-74
2021/09/18 10:45:07;;;;;;;2.83;2.63;;;16.40;98.50;;;;;;4994767;28;20193;-74
2021/09/18 10:47:48;;;;;;;2.53;2.10;;;16.30;98.50;;;;;;4994364;28;20245;-74
2021/09/18 10:50:24;;;;;;;2.40;2.30;;;16.30;98.50;;;;;;4996082;28;20205;-74
2021/09/18 10:53:00;;;;;;;2.60;1.90;;;16.20;98.50;;;;;;4993247;28;20185;-73
2021/09/18 10:55:27;;;;;;;2.55;1.55;;;16.20;98.50;;;;;;4991534;28;20178;-73
2021/09/18 10:57:52;;;;;;;2.15;1.40;;;16.20;98.50;;;;;;4996460;28;20219;-73
2021/09/18 11:00:18;;;;;;;1.42;1.20;;;16.20;98.50;;;;;;4993588;28;20212;-73
2021/09/18 11:02:57;;;;;;;3.03;1.30;;;16.20;98.50;;;;;;4998994;28;20685;-74
2021/09/18 11:05:28;;;;;;;1.40;1.27;;;16.30;98.50;;;;;;4996662;28;20689;-73
2021/09/18 11:07:58;;;;;;;6.20;3.47;;;16.30;98.50;;;;;;5001128;28;20250;-77
2021/09/18 11:10:24;;;;;;;3.03;2.78;;;16.30;98.50;;;;;;4994566;28;20204;-76
2021/09/18 11:13:10;;;;;;;2.60;2.50;;;16.40;98.50;;;;;;4995927;28;20178;-76
2021/09/18 11:15:36;;;;;;;3.92;3.60;;;16.40;98.50;;;;;;5008232;28;20208;-75
2021/09/18 11:18:07;;;;;;;3.80;3.50;;;16.40;98.50;;;;;;5007016;28;20217;-75
2021/09/18 11:20:34;;;;;;;4.13;3.72;;;16.40;98.50;;;;;;5004512;28;20238;-75
2021/09/18 11:23:01;;;;;;;4.45;4.05;;;16.40;98.50;;;;;;5007172;28;20178;-75
2021/09/18 11:25:26;;;;;;;3.15;2.95;;;16.30;98.50;;;;;;5003287;28;20185;-76
2021/09/18 11:28:01;;;;;;;3.08;2.88;;;16.20;98.50;;;;;;5003416;28;21041;-76
2021/09/18 11:30:44;;;;;;;2.60;2.40;;;16.20;98.50;;;;;;5003560;28;20195;-75
2021/09/18 11:33:16;;;;;;;1.52;1.52;;;16.20;98.50;;;;;;4988404;28;20184;-74
2021/09/18 11:35:55;;;;;;;1.20;1.13;;;16.20;98.50;;;;;;4991693;28;20670;-74
2021/09/18 11:38:25;;;;;;;1.75;1.10;;;16.30;98.50;;;;;;4989496;28;20212;-73
2021/09/18 11:41:02;;;;;;;1.25;1.25;;;16.40;98.50;;;;;;4988946;28;20280;-73
2021/09/18 11:43:28;;;;;;;1.85;1.75;;;16.50;98.50;;;;;;4993367;28;20181;-73
2021/09/18 11:45:53;;;;;;;1.90;1.80;;;16.60;98.50;;;;;;4991402;28;20671;-73
2021/09/18 11:48:24;;;;;;;1.67;1.58;;;16.80;98.50;;;;;;4985259;28;20189;-72
2021/09/18 11:50:50;;;;;;;1.80;1.80;;;16.90;98.50;;;;;;4989403;28;20185;-73
2021/09/18 11:53:16;;;;;;;1.63;1.52;;;16.90;98.00;;;;;;4992669;28;20251;-73
2021/09/18 11:55:45;;;;;;;1.98;1.88;;;16.90;97.80;;;;;;4990191;28;20581;-72
2021/09/18 11:58:21;;;;;;;1.95;1.85;;;17.00;97.20;;;;;;4987213;28;20296;-71
2021/09/18 12:00:57;;;;;;;2.63;2.30;;;17.00;97.20;;;;;;4990941;28;20698;-73
2021/09/18 12:03:38;;;;;;;2.03;1.92;;;17.10;97.20;;;;;;4989449;28;20196;-73
2021/09/18 12:06:10;;;;;;;1.65;1.60;;;17.20;97.10;;;;;;4992058;28;20186;-73
2021/09/18 12:08:37;;;;;;;2.80;1.77;;;17.30;96.30;;;;;;4992691;28;20638;-73
2021/09/18 12:11:11;;;;;;;2.20;2.10;;;17.40;96.50;;;;;;4994210;28;20224;-73
2021/09/18 12:13:57;;;;;;;1.98;1.88;;;17.60;95.70;;;;;;4993863;28;20185;-74
2021/09/18 12:16:25;;;;;;;2.15;2.05;;;17.90;96.00;;;;;;4994895;28;20279;-73
2021/09/18 12:18:59;;;;;;;2.40;2.30;;;18.30;95.60;;;;;;4991901;28;20206;-72
2021/09/18 12:21:33;;;;;;;2.67;2.22;;;18.60;95.20;;;;;;4990029;28;20858;-72
2021/09/18 12:24:10;;;;;;;2.55;2.47;;;18.90;93.50;;;;;;4990741;28;20569;-73
2021/09/18 12:26:39;;;;;;;3.00;2.85;;;19.00;91.70;;;;;;4985034;28;20189;-73
2021/09/18 12:29:08;;;;;;;2.65;2.55;;;19.00;90.50;;;;;;4989681;28;20197;-72
2021/09/18 12:31:35;;;;;;;3.10;3.00;;;18.90;91.00;;;;;;4989349;28;20189;-73
2021/09/18 12:34:10;;;;;;;3.03;2.92;;;18.70;90.80;;;;;;4991613;28;20184;-73
2021/09/18 12:36:36;;;;;;;2.90;2.80;;;18.60;91.00;;;;;;4988211;28;20324;-73
2021/09/18 12:39:06;;;;;;;3.08;2.88;;;18.60;92.00;;;;;;4990772;28;20220;-72
2021/09/18 12:41:33;;;;;;;3.60;3.40;;;18.60;92.60;;;;;;4989520;28;20181;-71
2021/09/18 12:44:04;;;;;;;3.83;3.60;;;18.70;91.40;;;;;;4990520;28;21072;-72
2021/09/18 12:46:39;;;;;;;8.02;4.13;;;18.80;91.50;;;;;;4990265;28;20185;-72
2021/09/18 12:49:05;;;;;;;4.22;4.00;;;19.00;91.00;;;;;;4986588;28;20275;-73
2021/09/18 12:51:33;;;;;;;4.25;3.97;;;19.20;91.50;;;;;;4987929;28;20723;-72
2021/09/18 12:54:01;;;;;;;4.55;4.25;;;19.50;90.30;;;;;;4989099;28;20213;-72